sensor_id;sensor_type;location;lat;lon;timestamp;temperature;humidity
77523;SHT31;66637;-29.628;-49.938;2023-07-31T00:02:18;14.69;79.30
77523;SHT31;66637;-29.628;-49.938;2023-07-31T00:04:48;14.69;79.63
77523;SHT31;66637;-29.628;-49.938;2023-07-31T00:07:20;14.84;80.11
77523;SHT31;66637;-29.628;-49.938;2023-07-31T00:09:50;14.88;80.26
77523;SHT31;66637;-29.628;-49.938;2023-07-31T00:12:22;14.93;80.09
77523;SHT31;66637;-29.628;-49.938;2023-07-31T00:14:52;14.94;80.71
77523;SHT31;66637;-29.628;-49.938;2023-07-31T00:17:23;14.95;80.66
77523;SHT31;66637;-29.628;-49.938;2023-07-31T00:19:55;14.93;80.99
77523;SHT31;66637;-29.628;-49.938;2023-07-31T00:22:26;14.95;80.89
77523;SHT31;66637;-29.628;-49.938;2023-07-31T00:24:57;14.86;80.55
77523;SHT31;66637;-29.628;-49.938;2023-07-31T00:27:29;14.83;80.85
77523;SHT31;66637;-29.628;-49.938;2023-07-31T00:30:00;14.83;80.89
77523;SHT31;66637;-29.628;-49.938;2023-07-31T00:32:33;14.72;80.51
77523;SHT31;66637;-29.628;-49.938;2023-07-31T00:35:04;14.59;80.57
77523;SHT31;66637;-29.628;-49.938;2023-07-31T00:37:34;14.47;80.73
77523;SHT31;66637;-29.628;-49.938;2023-07-31T00:40:07;14.44;81.07
77523;SHT31;66637;-29.628;-49.938;2023-07-31T00:42:37;14.44;80.88
77523;SHT31;66637;-29.628;-49.938;2023-07-31T00:45:08;14.40;80.71
77523;SHT31;66637;-29.628;-49.938;2023-07-31T00:47:40;14.44;80.73
77523;SHT31;66637;-29.628;-49.938;2023-07-31T00:50:11;14.40;81.25
77523;SHT31;66637;-29.628;-49.938;2023-07-31T00:52:42;14.42;81.35
77523;SHT31;66637;-29.628;-49.938;2023-07-31T00:55:14;14.36;80.64
77523;SHT31;66637;-29.628;-49.938;2023-07-31T00:57:45;14.33;81.15
77523;SHT31;66637;-29.628;-49.938;2023-07-31T01:00:19;14.33;81.54
77523;SHT31;66637;-29.628;-49.938;2023-07-31T01:02:51;14.15;81.35
77523;SHT31;66637;-29.628;-49.938;2023-07-31T01:05:37;14.09;81.16
77523;SHT31;66637;-29.628;-49.938;2023-07-31T01:08:22;14.01;81.63
77523;SHT31;66637;-29.628;-49.938;2023-07-31T01:11:50;13.98;81.48
77523;SHT31;66637;-29.628;-49.938;2023-07-31T01:13:54;13.85;81.14
77523;SHT31;66637;-29.628;-49.938;2023-07-31T01:16:26;13.78;81.79
77523;SHT31;66637;-29.628;-49.938;2023-07-31T01:18:57;13.81;81.66
77523;SHT31;66637;-29.628;-49.938;2023-07-31T01:24:20;13.74;81.52
77523;SHT31;66637;-29.628;-49.938;2023-07-31T01:27:15;13.79;81.94
77523;SHT31;66637;-29.628;-49.938;2023-07-31T01:30:11;13.78;82.30
77523;SHT31;66637;-29.628;-49.938;2023-07-31T01:32:48;13.71;82.35
77523;SHT31;66637;-29.628;-49.938;2023-07-31T01:35:19;13.79;82.03
77523;SHT31;66637;-29.628;-49.938;2023-07-31T02:14:28;13.64;81.79
77523;SHT31;66637;-29.628;-49.938;2023-07-31T02:17:06;13.53;82.18
77523;SHT31;66637;-29.628;-49.938;2023-07-31T02:19:37;13.51;82.61
77523;SHT31;66637;-29.628;-49.938;2023-07-31T02:22:08;13.55;82.72
77523;SHT31;66637;-29.628;-49.938;2023-07-31T02:24:39;13.40;82.35
77523;SHT31;66637;-29.628;-49.938;2023-07-31T02:27:13;13.38;82.51
77523;SHT31;66637;-29.628;-49.938;2023-07-31T02:29:43;13.31;82.40
77523;SHT31;66637;-29.628;-49.938;2023-07-31T02:32:14;13.34;82.30
77523;SHT31;66637;-29.628;-49.938;2023-07-31T02:34:45;13.46;82.77
77523;SHT31;66637;-29.628;-49.938;2023-07-31T02:37:17;13.50;82.25
77523;SHT31;66637;-29.628;-49.938;2023-07-31T02:39:48;13.57;82.99
77523;SHT31;66637;-29.628;-49.938;2023-07-31T02:42:18;13.64;82.64
77523;SHT31;66637;-29.628;-49.938;2023-07-31T02:44:49;13.61;82.48
77523;SHT31;66637;-29.628;-49.938;2023-07-31T02:47:22;13.62;82.85
77523;SHT31;66637;-29.628;-49.938;2023-07-31T02:49:52;13.65;83.24
77523;SHT31;66637;-29.628;-49.938;2023-07-31T02:52:24;13.70;83.48
77523;SHT31;66637;-29.628;-49.938;2023-07-31T02:54:57;13.71;83.54
77523;SHT31;66637;-29.628;-49.938;2023-07-31T02:57:27;13.68;83.43
77523;SHT31;66637;-29.628;-49.938;2023-07-31T02:59:58;13.67;83.04
77523;SHT31;66637;-29.628;-49.938;2023-07-31T03:02:28;13.68;83.47
77523;SHT31;66637;-29.628;-49.938;2023-07-31T03:05:00;13.72;83.68
77523;SHT31;66637;-29.628;-49.938;2023-07-31T03:07:30;13.72;83.95
77523;SHT31;66637;-29.628;-49.938;2023-07-31T03:10:01;13.77;84.05
77523;SHT31;66637;-29.628;-49.938;2023-07-31T03:12:31;13.77;84.12
77523;SHT31;66637;-29.628;-49.938;2023-07-31T03:15:02;13.65;83.94
77523;SHT31;66637;-29.628;-49.938;2023-07-31T03:17:32;13.62;83.81
77523;SHT31;66637;-29.628;-49.938;2023-07-31T03:20:04;13.58;83.75
77523;SHT31;66637;-29.628;-49.938;2023-07-31T03:22:35;13.57;84.06
77523;SHT31;66637;-29.628;-49.938;2023-07-31T03:25:05;13.55;83.94
77523;SHT31;66637;-29.628;-49.938;2023-07-31T03:27:37;13.62;84.30
77523;SHT31;66637;-29.628;-49.938;2023-07-31T03:30:08;13.67;84.35
77523;SHT31;66637;-29.628;-49.938;2023-07-31T03:32:39;13.68;84.70
77523;SHT31;66637;-29.628;-49.938;2023-07-31T03:35:13;13.64;84.57
77523;SHT31;66637;-29.628;-49.938;2023-07-31T03:37:44;13.62;84.73
77523;SHT31;66637;-29.628;-49.938;2023-07-31T03:40:14;13.57;84.20
77523;SHT31;66637;-29.628;-49.938;2023-07-31T03:42:46;13.47;84.15
77523;SHT31;66637;-29.628;-49.938;2023-07-31T03:45:17;13.30;83.49
77523;SHT31;66637;-29.628;-49.938;2023-07-31T03:47:48;13.27;83.92
77523;SHT31;66637;-29.628;-49.938;2023-07-31T03:50:20;13.26;84.01
77523;SHT31;66637;-29.628;-49.938;2023-07-31T03:52:51;13.18;83.52
77523;SHT31;66637;-29.628;-49.938;2023-07-31T03:55:21;13.16;83.24
77523;SHT31;66637;-29.628;-49.938;2023-07-31T03:57:52;13.11;83.70
77523;SHT31;66637;-29.628;-49.938;2023-07-31T04:00:26;13.10;82.79
77523;SHT31;66637;-29.628;-49.938;2023-07-31T04:02:57;13.17;84.08
77523;SHT31;66637;-29.628;-49.938;2023-07-31T04:05:32;13.27;84.21
77523;SHT31;66637;-29.628;-49.938;2023-07-31T04:08:04;13.28;84.50
77523;SHT31;66637;-29.628;-49.938;2023-07-31T04:10:36;13.31;84.52
77523;SHT31;66637;-29.628;-49.938;2023-07-31T04:13:06;13.37;84.95
77523;SHT31;66637;-29.628;-49.938;2023-07-31T04:15:38;13.38;84.40
77523;SHT31;66637;-29.628;-49.938;2023-07-31T04:18:09;13.34;84.07
77523;SHT31;66637;-29.628;-49.938;2023-07-31T04:20:39;13.40;84.58
77523;SHT31;66637;-29.628;-49.938;2023-07-31T04:23:10;13.47;84.88
77523;SHT31;66637;-29.628;-49.938;2023-07-31T04:25:41;13.55;84.95
77523;SHT31;66637;-29.628;-49.938;2023-07-31T04:28:15;13.60;84.80
77523;SHT31;66637;-29.628;-49.938;2023-07-31T04:30:46;13.70;84.65
77523;SHT31;66637;-29.628;-49.938;2023-07-31T04:33:24;13.72;84.58
77523;SHT31;66637;-29.628;-49.938;2023-07-31T04:35:55;13.77;84.51
77523;SHT31;66637;-29.628;-49.938;2023-07-31T04:38:26;13.78;84.43
77523;SHT31;66637;-29.628;-49.938;2023-07-31T04:40:57;13.79;84.39
77523;SHT31;66637;-29.628;-49.938;2023-07-31T04:43:28;13.83;84.31
77523;SHT31;66637;-29.628;-49.938;2023-07-31T04:45:59;13.79;84.13
77523;SHT31;66637;-29.628;-49.938;2023-07-31T04:48:30;13.79;84.15
77523;SHT31;66637;-29.628;-49.938;2023-07-31T04:51:01;13.81;84.03
77523;SHT31;66637;-29.628;-49.938;2023-07-31T04:53:31;13.81;83.94
77523;SHT31;66637;-29.628;-49.938;2023-07-31T04:56:03;13.83;83.86
77523;SHT31;66637;-29.628;-49.938;2023-07-31T04:58:35;13.89;83.85
77523;SHT31;66637;-29.628;-49.938;2023-07-31T05:01:06;13.94;83.56
77523;SHT31;66637;-29.628;-49.938;2023-07-31T05:03:37;13.99;83.45
77523;SHT31;66637;-29.628;-49.938;2023-07-31T05:06:09;14.02;83.11
77523;SHT31;66637;-29.628;-49.938;2023-07-31T05:08:39;14.06;82.89
77523;SHT31;66637;-29.628;-49.938;2023-07-31T05:11:11;14.08;82.90
77523;SHT31;66637;-29.628;-49.938;2023-07-31T05:13:42;14.08;82.59
77523;SHT31;66637;-29.628;-49.938;2023-07-31T05:16:14;14.09;82.47
77523;SHT31;66637;-29.628;-49.938;2023-07-31T05:18:44;14.06;82.30
77523;SHT31;66637;-29.628;-49.938;2023-07-31T05:21:14;13.97;82.37
77523;SHT31;66637;-29.628;-49.938;2023-07-31T05:23:45;13.85;82.32
77523;SHT31;66637;-29.628;-49.938;2023-07-31T05:26:18;13.75;82.28
77523;SHT31;66637;-29.628;-49.938;2023-07-31T05:28:49;13.71;82.63
77523;SHT31;66637;-29.628;-49.938;2023-07-31T05:31:19;13.67;82.47
77523;SHT31;66637;-29.628;-49.938;2023-07-31T05:33:53;13.65;82.79
77523;SHT31;66637;-29.628;-49.938;2023-07-31T05:36:23;13.62;82.61
77523;SHT31;66637;-29.628;-49.938;2023-07-31T05:38:54;13.57;82.54
77523;SHT31;66637;-29.628;-49.938;2023-07-31T05:41:24;13.51;82.73
77523;SHT31;66637;-29.628;-49.938;2023-07-31T05:43:55;13.47;82.70
77523;SHT31;66637;-29.628;-49.938;2023-07-31T05:46:26;13.53;82.77
77523;SHT31;66637;-29.628;-49.938;2023-07-31T05:48:57;13.48;82.32
77523;SHT31;66637;-29.628;-49.938;2023-07-31T05:51:31;13.46;82.82
77523;SHT31;66637;-29.628;-49.938;2023-07-31T05:54:02;13.46;82.42
77523;SHT31;66637;-29.628;-49.938;2023-07-31T05:56:33;13.48;82.57
77523;SHT31;66637;-29.628;-49.938;2023-07-31T05:59:03;13.51;82.74
77523;SHT31;66637;-29.628;-49.938;2023-07-31T06:01:35;13.47;82.77
77523;SHT31;66637;-29.628;-49.938;2023-07-31T06:04:07;13.43;83.08
77523;SHT31;66637;-29.628;-49.938;2023-07-31T06:06:38;13.43;83.16
77523;SHT31;66637;-29.628;-49.938;2023-07-31T06:09:10;13.41;83.30
77523;SHT31;66637;-29.628;-49.938;2023-07-31T06:11:42;13.44;83.31
77523;SHT31;66637;-29.628;-49.938;2023-07-31T06:14:14;13.46;83.38
77523;SHT31;66637;-29.628;-49.938;2023-07-31T06:16:46;13.43;83.14
77523;SHT31;66637;-29.628;-49.938;2023-07-31T06:19:16;13.37;83.18
77523;SHT31;66637;-29.628;-49.938;2023-07-31T06:21:48;13.43;83.60
77523;SHT31;66637;-29.628;-49.938;2023-07-31T06:24:18;13.43;83.59
77523;SHT31;66637;-29.628;-49.938;2023-07-31T06:26:50;13.38;83.84
77523;SHT31;66637;-29.628;-49.938;2023-07-31T06:29:21;13.31;83.54
77523;SHT31;66637;-29.628;-49.938;2023-07-31T06:31:52;13.21;83.26
77523;SHT31;66637;-29.628;-49.938;2023-07-31T06:34:22;13.20;83.74
77523;SHT31;66637;-29.628;-49.938;2023-07-31T06:36:53;13.18;83.91
77523;SHT31;66637;-29.628;-49.938;2023-07-31T06:39:23;13.20;83.49
77523;SHT31;66637;-29.628;-49.938;2023-07-31T06:41:54;13.18;83.91
77523;SHT31;66637;-29.628;-49.938;2023-07-31T06:44:25;13.20;84.28
77523;SHT31;66637;-29.628;-49.938;2023-07-31T06:46:57;13.20;84.57
77523;SHT31;66637;-29.628;-49.938;2023-07-31T06:49:28;13.07;84.29
77523;SHT31;66637;-29.628;-49.938;2023-07-31T06:51:58;13.07;84.17
77523;SHT31;66637;-29.628;-49.938;2023-07-31T06:54:28;12.93;84.08
77523;SHT31;66637;-29.628;-49.938;2023-07-31T06:57:00;12.97;84.35
77523;SHT31;66637;-29.628;-49.938;2023-07-31T06:59:30;12.90;83.99
77523;SHT31;66637;-29.628;-49.938;2023-07-31T07:02:00;12.89;84.13
77523;SHT31;66637;-29.628;-49.938;2023-07-31T07:04:34;12.92;84.34
77523;SHT31;66637;-29.628;-49.938;2023-07-31T07:07:05;12.93;84.62
77523;SHT31;66637;-29.628;-49.938;2023-07-31T07:09:37;13.04;85.09
77523;SHT31;66637;-29.628;-49.938;2023-07-31T07:12:09;13.04;84.48
77523;SHT31;66637;-29.628;-49.938;2023-07-31T07:14:40;13.09;83.99
77523;SHT31;66637;-29.628;-49.938;2023-07-31T07:17:11;13.10;84.25
77523;SHT31;66637;-29.628;-49.938;2023-07-31T07:19:42;13.06;84.15
77523;SHT31;66637;-29.628;-49.938;2023-07-31T07:22:14;13.03;83.95
77523;SHT31;66637;-29.628;-49.938;2023-07-31T07:24:44;13.02;84.30
77523;SHT31;66637;-29.628;-49.938;2023-07-31T07:27:14;12.97;84.06
77523;SHT31;66637;-29.628;-49.938;2023-07-31T07:29:46;13.06;84.53
77523;SHT31;66637;-29.628;-49.938;2023-07-31T07:32:16;13.09;85.07
77523;SHT31;66637;-29.628;-49.938;2023-07-31T07:34:48;13.02;84.29
77523;SHT31;66637;-29.628;-49.938;2023-07-31T07:37:19;13.02;84.33
77523;SHT31;66637;-29.628;-49.938;2023-07-31T07:39:52;12.99;83.99
77523;SHT31;66637;-29.628;-49.938;2023-07-31T07:42:22;12.90;83.81
77523;SHT31;66637;-29.628;-49.938;2023-07-31T07:44:54;12.90;83.92
77523;SHT31;66637;-29.628;-49.938;2023-07-31T07:47:27;12.80;83.86
77523;SHT31;66637;-29.628;-49.938;2023-07-31T07:49:59;12.93;84.93
77523;SHT31;66637;-29.628;-49.938;2023-07-31T07:52:29;13.02;84.46
77523;SHT31;66637;-29.628;-49.938;2023-07-31T07:55:00;13.02;83.69
77523;SHT31;66637;-29.628;-49.938;2023-07-31T07:57:31;13.10;83.85
77523;SHT31;66637;-29.628;-49.938;2023-07-31T08:00:02;13.04;83.44
77523;SHT31;66637;-29.628;-49.938;2023-07-31T08:02:43;12.96;83.59
77523;SHT31;66637;-29.628;-49.938;2023-07-31T08:05:14;12.92;83.50
77523;SHT31;66637;-29.628;-49.938;2023-07-31T08:07:45;12.90;83.91
77523;SHT31;66637;-29.628;-49.938;2023-07-31T08:10:16;12.85;83.72
77523;SHT31;66637;-29.628;-49.938;2023-07-31T08:12:48;12.82;83.69
77523;SHT31;66637;-29.628;-49.938;2023-07-31T08:15:18;12.80;83.50
77523;SHT31;66637;-29.628;-49.938;2023-07-31T08:17:48;12.82;83.35
77523;SHT31;66637;-29.628;-49.938;2023-07-31T08:20:19;12.86;83.60
77523;SHT31;66637;-29.628;-49.938;2023-07-31T08:22:51;12.79;83.06
77523;SHT31;66637;-29.628;-49.938;2023-07-31T08:25:23;12.75;83.13
77523;SHT31;66637;-29.628;-49.938;2023-07-31T08:27:54;12.79;83.12
77523;SHT31;66637;-29.628;-49.938;2023-07-31T08:30:25;12.90;83.73
77523;SHT31;66637;-29.628;-49.938;2023-07-31T08:32:55;12.82;82.99
77523;SHT31;66637;-29.628;-49.938;2023-07-31T08:35:26;12.87;83.24
77523;SHT31;66637;-29.628;-49.938;2023-07-31T08:38:00;12.97;83.77
77523;SHT31;66637;-29.628;-49.938;2023-07-31T08:40:31;13.02;83.43
77523;SHT31;66637;-29.628;-49.938;2023-07-31T08:43:02;13.03;83.46
77523;SHT31;66637;-29.628;-49.938;2023-07-31T08:45:33;13.02;83.00
77523;SHT31;66637;-29.628;-49.938;2023-07-31T08:48:04;13.03;83.37
77523;SHT31;66637;-29.628;-49.938;2023-07-31T08:50:35;13.04;83.19
77523;SHT31;66637;-29.628;-49.938;2023-07-31T08:53:06;13.02;82.98
77523;SHT31;66637;-29.628;-49.938;2023-07-31T08:55:38;12.96;83.07
77523;SHT31;66637;-29.628;-49.938;2023-07-31T08:58:12;12.92;82.85
77523;SHT31;66637;-29.628;-49.938;2023-07-31T09:00:46;12.93;82.96
77523;SHT31;66637;-29.628;-49.938;2023-07-31T09:03:23;12.90;82.72
77523;SHT31;66637;-29.628;-49.938;2023-07-31T09:05:57;12.90;83.03
77523;SHT31;66637;-29.628;-49.938;2023-07-31T09:08:31;13.00;83.23
77523;SHT31;66637;-29.628;-49.938;2023-07-31T09:11:04;13.09;83.20
77523;SHT31;66637;-29.628;-49.938;2023-07-31T09:13:37;13.13;83.04
77523;SHT31;66637;-29.628;-49.938;2023-07-31T09:16:10;13.36;84.29
77523;SHT31;66637;-29.628;-49.938;2023-07-31T09:18:54;13.36;83.51
77523;SHT31;66637;-29.628;-49.938;2023-07-31T09:21:26;13.26;82.83
77523;SHT31;66637;-29.628;-49.938;2023-07-31T09:23:58;13.23;82.89
77523;SHT31;66637;-29.628;-49.938;2023-07-31T09:26:33;13.14;83.01
77523;SHT31;66637;-29.628;-49.938;2023-07-31T09:29:05;13.11;82.79
77523;SHT31;66637;-29.628;-49.938;2023-07-31T09:31:42;13.06;82.78
77523;SHT31;66637;-29.628;-49.938;2023-07-31T09:34:13;13.03;83.32
77523;SHT31;66637;-29.628;-49.938;2023-07-31T09:36:46;13.03;83.42
77523;SHT31;66637;-29.628;-49.938;2023-07-31T09:39:18;12.87;83.05
77523;SHT31;66637;-29.628;-49.938;2023-07-31T09:41:56;12.77;83.20
77523;SHT31;66637;-29.628;-49.938;2023-07-31T09:44:42;12.83;82.88
77523;SHT31;66637;-29.628;-49.938;2023-07-31T09:47:23;12.72;82.75
77523;SHT31;66637;-29.628;-49.938;2023-07-31T09:49:55;12.70;83.04
77523;SHT31;66637;-29.628;-49.938;2023-07-31T09:52:29;12.73;82.99
77523;SHT31;66637;-29.628;-49.938;2023-07-31T09:55:00;12.65;82.81
77523;SHT31;66637;-29.628;-49.938;2023-07-31T09:57:31;12.63;83.28
77523;SHT31;66637;-29.628;-49.938;2023-07-31T10:00:03;12.67;83.35
77523;SHT31;66637;-29.628;-49.938;2023-07-31T10:02:39;12.63;83.22
77523;SHT31;66637;-29.628;-49.938;2023-07-31T10:05:10;12.76;83.27
77523;SHT31;66637;-29.628;-49.938;2023-07-31T10:07:49;12.80;83.26
77523;SHT31;66637;-29.628;-49.938;2023-07-31T10:10:21;12.82;83.20
77523;SHT31;66637;-29.628;-49.938;2023-07-31T10:12:54;12.73;82.99
77523;SHT31;66637;-29.628;-49.938;2023-07-31T10:15:27;12.75;83.19
77523;SHT31;66637;-29.628;-49.938;2023-07-31T10:17:59;12.80;83.31
77523;SHT31;66637;-29.628;-49.938;2023-07-31T10:20:30;12.66;82.29
77523;SHT31;66637;-29.628;-49.938;2023-07-31T10:23:03;12.75;83.22
77523;SHT31;66637;-29.628;-49.938;2023-07-31T10:25:34;12.79;82.33
77523;SHT31;66637;-29.628;-49.938;2023-07-31T10:28:06;12.89;82.07
77523;SHT31;66637;-29.628;-49.938;2023-07-31T10:30:37;13.04;82.54
77523;SHT31;66637;-29.628;-49.938;2023-07-31T10:33:09;13.02;82.34
77523;SHT31;66637;-29.628;-49.938;2023-07-31T10:35:41;13.68;80.86
77523;SHT31;66637;-29.628;-49.938;2023-07-31T10:38:12;14.16;79.85
77523;SHT31;66637;-29.628;-49.938;2023-07-31T10:40:43;14.91;78.25
77523;SHT31;66637;-29.628;-49.938;2023-07-31T10:43:26;17.91;72.20
77523;SHT31;66637;-29.628;-49.938;2023-07-31T10:45:57;16.09;75.23
77523;SHT31;66637;-29.628;-49.938;2023-07-31T10:48:33;17.08;73.62
77523;SHT31;66637;-29.628;-49.938;2023-07-31T10:51:09;16.84;73.69
77523;SHT31;66637;-29.628;-49.938;2023-07-31T10:53:41;17.61;72.20
77523;SHT31;66637;-29.628;-49.938;2023-07-31T10:56:12;16.03;75.52
77523;SHT31;66637;-29.628;-49.938;2023-07-31T10:58:45;19.42;69.24
77523;SHT31;66637;-29.628;-49.938;2023-07-31T11:01:18;21.85;64.34
77523;SHT31;66637;-29.628;-49.938;2023-07-31T11:03:50;22.09;62.61
77523;SHT31;66637;-29.628;-49.938;2023-07-31T11:06:29;21.64;65.09
77523;SHT31;66637;-29.628;-49.938;2023-07-31T11:09:00;19.98;66.43
77523;SHT31;66637;-29.628;-49.938;2023-07-31T11:11:31;21.47;65.27
77523;SHT31;66637;-29.628;-49.938;2023-07-31T11:14:05;18.91;70.21
77523;SHT31;66637;-29.628;-49.938;2023-07-31T11:16:37;18.47;71.67
77523;SHT31;66637;-29.628;-49.938;2023-07-31T11:19:09;18.94;71.83
77523;SHT31;66637;-29.628;-49.938;2023-07-31T11:21:39;20.46;69.38
77523;SHT31;66637;-29.628;-49.938;2023-07-31T11:24:12;21.94;66.72
77523;SHT31;66637;-29.628;-49.938;2023-07-31T11:26:52;21.70;68.13
77523;SHT31;66637;-29.628;-49.938;2023-07-31T11:29:27;19.94;71.02
77523;SHT31;66637;-29.628;-49.938;2023-07-31T11:31:59;18.62;74.04
77523;SHT31;66637;-29.628;-49.938;2023-07-31T11:34:29;18.65;74.11
77523;SHT31;66637;-29.628;-49.938;2023-07-31T11:37:00;18.78;74.12
77523;SHT31;66637;-29.628;-49.938;2023-07-31T11:39:31;19.06;74.63
77523;SHT31;66637;-29.628;-49.938;2023-07-31T11:42:02;19.34;74.76
77523;SHT31;66637;-29.628;-49.938;2023-07-31T11:44:40;19.10;75.02
77523;SHT31;66637;-29.628;-49.938;2023-07-31T11:47:18;18.88;75.20
77523;SHT31;66637;-29.628;-49.938;2023-07-31T11:49:49;18.61;75.41
77523;SHT31;66637;-29.628;-49.938;2023-07-31T11:52:19;18.61;75.56
77523;SHT31;66637;-29.628;-49.938;2023-07-31T11:54:51;18.57;75.36
77523;SHT31;66637;-29.628;-49.938;2023-07-31T11:57:22;18.28;76.18
77523;SHT31;66637;-29.628;-49.938;2023-07-31T11:59:53;18.21;76.43
77523;SHT31;66637;-29.628;-49.938;2023-07-31T12:02:27;18.20;77.08
77523;SHT31;66637;-29.628;-49.938;2023-07-31T12:04:59;18.17;77.38
77523;SHT31;66637;-29.628;-49.938;2023-07-31T12:07:44;18.27;77.48
77523;SHT31;66637;-29.628;-49.938;2023-07-31T12:10:29;18.33;78.04
77523;SHT31;66637;-29.628;-49.938;2023-07-31T12:13:11;18.57;76.21
77523;SHT31;66637;-29.628;-49.938;2023-07-31T12:15:48;18.21;76.45
77523;SHT31;66637;-29.628;-49.938;2023-07-31T12:18:20;18.00;76.74
77523;SHT31;66637;-29.628;-49.938;2023-07-31T12:21:00;17.86;77.21
77523;SHT31;66637;-29.628;-49.938;2023-07-31T12:23:31;17.97;77.02
77523;SHT31;66637;-29.628;-49.938;2023-07-31T12:26:14;18.07;76.25
77523;SHT31;66637;-29.628;-49.938;2023-07-31T12:28:50;18.26;76.25
77523;SHT31;66637;-29.628;-49.938;2023-07-31T12:31:22;18.72;75.22
77523;SHT31;66637;-29.628;-49.938;2023-07-31T12:33:52;18.96;75.20
77523;SHT31;66637;-29.628;-49.938;2023-07-31T12:36:28;18.69;75.17
77523;SHT31;66637;-29.628;-49.938;2023-07-31T12:39:03;18.99;75.04
77523;SHT31;66637;-29.628;-49.938;2023-07-31T12:41:34;19.49;73.45
77523;SHT31;66637;-29.628;-49.938;2023-07-31T12:44:05;19.91;73.00
77523;SHT31;66637;-29.628;-49.938;2023-07-31T12:46:35;19.81;71.86
77523;SHT31;66637;-29.628;-49.938;2023-07-31T12:49:08;19.81;72.21
77523;SHT31;66637;-29.628;-49.938;2023-07-31T12:51:39;19.91;72.11
77523;SHT31;66637;-29.628;-49.938;2023-07-31T12:54:11;20.34;72.11
77523;SHT31;66637;-29.628;-49.938;2023-07-31T12:56:42;20.34;70.58
77523;SHT31;66637;-29.628;-49.938;2023-07-31T12:59:15;20.17;71.26
77523;SHT31;66637;-29.628;-49.938;2023-07-31T13:01:46;20.28;71.19
77523;SHT31;66637;-29.628;-49.938;2023-07-31T13:04:17;20.24;70.85
77523;SHT31;66637;-29.628;-49.938;2023-07-31T13:06:47;19.78;70.73
77523;SHT31;66637;-29.628;-49.938;2023-07-31T13:09:18;19.73;72.12
77523;SHT31;66637;-29.628;-49.938;2023-07-31T13:11:48;19.75;71.85
77523;SHT31;66637;-29.628;-49.938;2023-07-31T13:14:18;19.70;71.61
77523;SHT31;66637;-29.628;-49.938;2023-07-31T13:16:48;19.53;71.95
77523;SHT31;66637;-29.628;-49.938;2023-07-31T13:19:20;19.69;72.23
77523;SHT31;66637;-29.628;-49.938;2023-07-31T13:21:55;19.84;72.19
77523;SHT31;66637;-29.628;-49.938;2023-07-31T13:24:27;19.84;72.31
77523;SHT31;66637;-29.628;-49.938;2023-07-31T13:26:57;19.85;72.49
77523;SHT31;66637;-29.628;-49.938;2023-07-31T13:29:27;19.81;72.75
77523;SHT31;66637;-29.628;-49.938;2023-07-31T13:32:00;19.77;72.93
77523;SHT31;66637;-29.628;-49.938;2023-07-31T13:34:32;19.84;73.29
77523;SHT31;66637;-29.628;-49.938;2023-07-31T13:37:04;19.97;72.62
77523;SHT31;66637;-29.628;-49.938;2023-07-31T13:39:36;20.17;74.00
77523;SHT31;66637;-29.628;-49.938;2023-07-31T13:42:08;20.28;73.07
77523;SHT31;66637;-29.628;-49.938;2023-07-31T13:44:42;20.24;73.31
77523;SHT31;66637;-29.628;-49.938;2023-07-31T13:47:12;20.38;73.76
77523;SHT31;66637;-29.628;-49.938;2023-07-31T13:49:43;20.35;73.93
77523;SHT31;66637;-29.628;-49.938;2023-07-31T13:52:15;20.46;74.24
77523;SHT31;66637;-29.628;-49.938;2023-07-31T13:54:45;20.62;74.26
77523;SHT31;66637;-29.628;-49.938;2023-07-31T13:57:15;20.64;73.50
77523;SHT31;66637;-29.628;-49.938;2023-07-31T13:59:47;20.65;73.83
77523;SHT31;66637;-29.628;-49.938;2023-07-31T14:02:17;20.51;73.61
77523;SHT31;66637;-29.628;-49.938;2023-07-31T14:04:47;20.45;73.48
77523;SHT31;66637;-29.628;-49.938;2023-07-31T14:07:18;20.44;72.97
77523;SHT31;66637;-29.628;-49.938;2023-07-31T14:09:49;20.55;73.55
77523;SHT31;66637;-29.628;-49.938;2023-07-31T14:12:19;20.62;73.77
77523;SHT31;66637;-29.628;-49.938;2023-07-31T14:15:10;20.65;73.80
77523;SHT31;66637;-29.628;-49.938;2023-07-31T14:17:41;20.65;73.91
77523;SHT31;66637;-29.628;-49.938;2023-07-31T14:20:12;20.62;73.90
77523;SHT31;66637;-29.628;-49.938;2023-07-31T14:22:43;20.55;74.56
77523;SHT31;66637;-29.628;-49.938;2023-07-31T14:25:14;20.73;75.15
77523;SHT31;66637;-29.628;-49.938;2023-07-31T14:27:45;20.82;75.12
77523;SHT31;66637;-29.628;-49.938;2023-07-31T14:30:15;20.72;74.33
77523;SHT31;66637;-29.628;-49.938;2023-07-31T14:32:47;20.77;73.95
77523;SHT31;66637;-29.628;-49.938;2023-07-31T14:35:18;20.73;74.41
77523;SHT31;66637;-29.628;-49.938;2023-07-31T14:37:48;20.76;74.63
77523;SHT31;66637;-29.628;-49.938;2023-07-31T14:40:20;20.64;74.84
77523;SHT31;66637;-29.628;-49.938;2023-07-31T14:42:51;20.59;75.00
77523;SHT31;66637;-29.628;-49.938;2023-07-31T14:45:21;20.64;75.69
77523;SHT31;66637;-29.628;-49.938;2023-07-31T14:47:51;20.69;74.75
77523;SHT31;66637;-29.628;-49.938;2023-07-31T14:50:22;20.58;74.01
77523;SHT31;66637;-29.628;-49.938;2023-07-31T14:52:53;20.59;73.99
77523;SHT31;66637;-29.628;-49.938;2023-07-31T14:55:23;20.45;73.96
77523;SHT31;66637;-29.628;-49.938;2023-07-31T14:57:53;20.51;74.09
77523;SHT31;66637;-29.628;-49.938;2023-07-31T15:00:24;20.71;74.70
77523;SHT31;66637;-29.628;-49.938;2023-07-31T15:02:56;20.66;72.85
77523;SHT31;66637;-29.628;-49.938;2023-07-31T15:05:27;20.76;73.16
77523;SHT31;66637;-29.628;-49.938;2023-07-31T15:07:57;20.87;73.28
77523;SHT31;66637;-29.628;-49.938;2023-07-31T15:10:31;20.87;73.24
77523;SHT31;66637;-29.628;-49.938;2023-07-31T15:13:03;21.00;73.60
77523;SHT31;66637;-29.628;-49.938;2023-07-31T15:15:34;21.09;74.06
77523;SHT31;66637;-29.628;-49.938;2023-07-31T15:18:06;21.10;73.89
77523;SHT31;66637;-29.628;-49.938;2023-07-31T15:20:37;21.02;73.19
77523;SHT31;66637;-29.628;-49.938;2023-07-31T15:23:07;21.04;73.43
77523;SHT31;66637;-29.628;-49.938;2023-07-31T15:25:37;21.14;72.55
77523;SHT31;66637;-29.628;-49.938;2023-07-31T15:28:07;20.97;72.68
77523;SHT31;66637;-29.628;-49.938;2023-07-31T15:30:39;20.95;72.27
77523;SHT31;66637;-29.628;-49.938;2023-07-31T15:33:10;20.90;72.90
77523;SHT31;66637;-29.628;-49.938;2023-07-31T15:35:41;21.11;73.63
77523;SHT31;66637;-29.628;-49.938;2023-07-31T15:38:12;21.19;73.57
77523;SHT31;66637;-29.628;-49.938;2023-07-31T15:40:43;21.19;72.72
77523;SHT31;66637;-29.628;-49.938;2023-07-31T15:43:18;21.23;72.65
77523;SHT31;66637;-29.628;-49.938;2023-07-31T15:45:50;21.34;73.52
77523;SHT31;66637;-29.628;-49.938;2023-07-31T15:48:21;21.22;72.61
77523;SHT31;66637;-29.628;-49.938;2023-07-31T15:50:51;21.24;73.85
77523;SHT31;66637;-29.628;-49.938;2023-07-31T15:53:21;21.31;73.06
77523;SHT31;66637;-29.628;-49.938;2023-07-31T15:55:51;21.30;72.72
77523;SHT31;66637;-29.628;-49.938;2023-07-31T15:58:22;21.26;73.57